sensor_id;sensor_type;location;lat;lon;timestamp;P1;durP1;ratioP1;P2;durP2;ratioP2
14817;SDS011;7500;57.698;11.986;2023-05-10T00:00:36;3.97;;;2.53;;
14817;SDS011;7500;57.698;11.986;2023-05-10T00:03:03;4.00;;;2.30;;
14817;SDS011;7500;57.698;11.986;2023-05-10T00:05:30;6.93;;;2.57;;
14817;SDS011;7500;57.698;11.986;2023-05-10T00:07:56;3.60;;;2.70;;
14817;SDS011;7500;57.698;11.986;2023-05-10T00:10:23;3.30;;;2.53;;
14817;SDS011;7500;57.698;11.986;2023-05-10T00:12:50;2.93;;;2.63;;
14817;SDS011;7500;57.698;11.986;2023-05-10T00:15:16;3.33;;;2.63;;
14817;SDS011;7500;57.698;11.986;2023-05-10T00:17:44;4.70;;;3.00;;
14817;SDS011;7500;57.698;11.986;2023-05-10T00:20:11;5.97;;;2.60;;
14817;SDS011;7500;57.698;11.986;2023-05-10T00:22:38;4.33;;;2.60;;
14817;SDS011;7500;57.698;11.986;2023-05-10T00:25:05;4.43;;;2.70;;
14817;SDS011;7500;57.698;11.986;2023-05-10T00:27:32;4.00;;;2.40;;
14817;SDS011;7500;57.698;11.986;2023-05-10T00:29:58;4.97;;;2.50;;
14817;SDS011;7500;57.698;11.986;2023-05-10T00:32:25;5.67;;;2.83;;
14817;SDS011;7500;57.698;11.986;2023-05-10T00:34:53;3.23;;;2.40;;
14817;SDS011;7500;57.698;11.986;2023-05-10T00:37:20;4.33;;;2.47;;
14817;SDS011;7500;57.698;11.986;2023-05-10T00:39:46;5.63;;;2.40;;
14817;SDS011;7500;57.698;11.986;2023-05-10T00:42:13;6.90;;;2.80;;
14817;SDS011;7500;57.698;11.986;2023-05-10T00:44:39;7.83;;;2.83;;
14817;SDS011;7500;57.698;11.986;2023-05-10T00:47:06;4.17;;;2.57;;
14817;SDS011;7500;57.698;11.986;2023-05-10T00:49:33;5.83;;;2.70;;
14817;SDS011;7500;57.698;11.986;2023-05-10T00:52:01;4.77;;;2.40;;
14817;SDS011;7500;57.698;11.986;2023-05-10T00:54:28;4.63;;;2.50;;
14817;SDS011;7500;57.698;11.986;2023-05-10T00:56:54;4.17;;;2.37;;
14817;SDS011;7500;57.698;11.986;2023-05-10T00:59:22;6.53;;;2.80;;
14817;SDS011;7500;57.698;11.986;2023-05-10T01:01:48;4.13;;;2.57;;
14817;SDS011;7500;57.698;11.986;2023-05-10T01:04:16;3.40;;;2.60;;
14817;SDS011;7500;57.698;11.986;2023-05-10T01:06:45;5.67;;;2.80;;
14817;SDS011;7500;57.698;11.986;2023-05-10T01:09:13;5.37;;;2.57;;
14817;SDS011;7500;57.698;11.986;2023-05-10T01:11:39;6.30;;;2.47;;
14817;SDS011;7500;57.698;11.986;2023-05-10T01:14:06;5.90;;;2.70;;
14817;SDS011;7500;57.698;11.986;2023-05-10T01:16:34;3.17;;;2.47;;
14817;SDS011;7500;57.698;11.986;2023-05-10T01:19:02;5.23;;;2.90;;
14817;SDS011;7500;57.698;11.986;2023-05-10T01:21:31;6.30;;;2.83;;
14817;SDS011;7500;57.698;11.986;2023-05-10T01:24:06;5.77;;;2.97;;
14817;SDS011;7500;57.698;11.986;2023-05-10T01:26:42;2.40;;;2.10;;
14817;SDS011;7500;57.698;11.986;2023-05-10T01:29:18;4.97;;;2.73;;
14817;SDS011;7500;57.698;11.986;2023-05-10T01:34:42;4.87;;;2.70;;
14817;SDS011;7500;57.698;11.986;2023-05-10T01:37:13;4.97;;;2.20;;
14817;SDS011;7500;57.698;11.986;2023-05-10T01:39:42;4.13;;;2.60;;
14817;SDS011;7500;57.698;11.986;2023-05-10T01:42:11;3.67;;;2.70;;
14817;SDS011;7500;57.698;11.986;2023-05-10T01:44:39;4.60;;;2.53;;
14817;SDS011;7500;57.698;11.986;2023-05-10T01:47:07;2.90;;;2.60;;
14817;SDS011;7500;57.698;11.986;2023-05-10T01:49:37;6.33;;;2.80;;
14817;SDS011;7500;57.698;11.986;2023-05-10T01:52:08;4.47;;;2.70;;
14817;SDS011;7500;57.698;11.986;2023-05-10T01:54:35;4.03;;;2.67;;
14817;SDS011;7500;57.698;11.986;2023-05-10T01:57:05;3.70;;;2.60;;
14817;SDS011;7500;57.698;11.986;2023-05-10T01:59:34;3.63;;;2.50;;
14817;SDS011;7500;57.698;11.986;2023-05-10T02:02:04;4.30;;;2.50;;
14817;SDS011;7500;57.698;11.986;2023-05-10T02:04:32;5.97;;;2.87;;
14817;SDS011;7500;57.698;11.986;2023-05-10T02:06:59;5.40;;;2.50;;
14817;SDS011;7500;57.698;11.986;2023-05-10T02:09:27;9.00;;;2.87;;
14817;SDS011;7500;57.698;11.986;2023-05-10T02:11:55;5.73;;;2.80;;
14817;SDS011;7500;57.698;11.986;2023-05-10T02:14:24;4.53;;;2.80;;
14817;SDS011;7500;57.698;11.986;2023-05-10T02:16:52;4.53;;;2.80;;
14817;SDS011;7500;57.698;11.986;2023-05-10T02:19:20;8.00;;;2.63;;
14817;SDS011;7500;57.698;11.986;2023-05-10T02:21:48;4.33;;;2.70;;
14817;SDS011;7500;57.698;11.986;2023-05-10T02:24:16;6.07;;;2.90;;
14817;SDS011;7500;57.698;11.986;2023-05-10T02:26:46;7.73;;;2.80;;
14817;SDS011;7500;57.698;11.986;2023-05-10T02:29:13;4.63;;;2.67;;
14817;SDS011;7500;57.698;11.986;2023-05-10T02:31:41;2.83;;;2.50;;
14817;SDS011;7500;57.698;11.986;2023-05-10T02:34:08;2.77;;;2.47;;
14817;SDS011;7500;57.698;11.986;2023-05-10T02:36:36;7.10;;;2.70;;
14817;SDS011;7500;57.698;11.986;2023-05-10T02:39:04;4.87;;;2.70;;
14817;SDS011;7500;57.698;11.986;2023-05-10T02:41:34;4.43;;;2.60;;
14817;SDS011;7500;57.698;11.986;2023-05-10T02:44:02;3.03;;;2.47;;
14817;SDS011;7500;57.698;11.986;2023-05-10T02:46:29;6.63;;;2.90;;
14817;SDS011;7500;57.698;11.986;2023-05-10T02:48:56;5.00;;;2.73;;
14817;SDS011;7500;57.698;11.986;2023-05-10T02:51:23;4.67;;;2.53;;
14817;SDS011;7500;57.698;11.986;2023-05-10T02:53:51;4.93;;;2.40;;
14817;SDS011;7500;57.698;11.986;2023-05-10T02:56:20;6.90;;;2.70;;
14817;SDS011;7500;57.698;11.986;2023-05-10T02:58:50;2.87;;;2.43;;
14817;SDS011;7500;57.698;11.986;2023-05-10T03:01:18;3.03;;;2.37;;
14817;SDS011;7500;57.698;11.986;2023-05-10T03:03:44;6.80;;;2.87;;
14817;SDS011;7500;57.698;11.986;2023-05-10T03:06:11;4.33;;;2.80;;
14817;SDS011;7500;57.698;11.986;2023-05-10T03:08:37;6.63;;;3.17;;
14817;SDS011;7500;57.698;11.986;2023-05-10T03:11:12;5.03;;;2.90;;
14817;SDS011;7500;57.698;11.986;2023-05-10T03:13:39;3.60;;;2.60;;
14817;SDS011;7500;57.698;11.986;2023-05-10T03:16:12;2.67;;;2.47;;
14817;SDS011;7500;57.698;11.986;2023-05-10T03:18:43;4.70;;;2.60;;
14817;SDS011;7500;57.698;11.986;2023-05-10T03:21:11;6.00;;;2.80;;
14817;SDS011;7500;57.698;11.986;2023-05-10T03:23:40;4.27;;;2.53;;
14817;SDS011;7500;57.698;11.986;2023-05-10T03:26:07;9.07;;;2.67;;
14817;SDS011;7500;57.698;11.986;2023-05-10T03:28:34;7.00;;;2.53;;
14817;SDS011;7500;57.698;11.986;2023-05-10T03:31:01;4.30;;;2.60;;
14817;SDS011;7500;57.698;11.986;2023-05-10T03:33:28;4.30;;;2.70;;
14817;SDS011;7500;57.698;11.986;2023-05-10T03:35:57;5.87;;;2.43;;
14817;SDS011;7500;57.698;11.986;2023-05-10T03:38:23;6.20;;;3.33;;
14817;SDS011;7500;57.698;11.986;2023-05-10T03:40:50;6.53;;;2.53;;
14817;SDS011;7500;57.698;11.986;2023-05-10T03:43:16;5.50;;;3.23;;
14817;SDS011;7500;57.698;11.986;2023-05-10T03:45:43;5.07;;;2.47;;
14817;SDS011;7500;57.698;11.986;2023-05-10T03:48:10;6.47;;;2.60;;
14817;SDS011;7500;57.698;11.986;2023-05-10T03:50:38;3.67;;;2.50;;
14817;SDS011;7500;57.698;11.986;2023-05-10T03:53:06;5.93;;;2.70;;
14817;SDS011;7500;57.698;11.986;2023-05-10T03:55:33;7.00;;;2.60;;
14817;SDS011;7500;57.698;11.986;2023-05-10T03:58:01;5.07;;;2.63;;
14817;SDS011;7500;57.698;11.986;2023-05-10T04:00:28;3.37;;;2.70;;
14817;SDS011;7500;57.698;11.986;2023-05-10T04:02:55;3.67;;;2.67;;
14817;SDS011;7500;57.698;11.986;2023-05-10T04:05:21;3.60;;;2.40;;
14817;SDS011;7500;57.698;11.986;2023-05-10T04:07:48;3.53;;;2.80;;
14817;SDS011;7500;57.698;11.986;2023-05-10T04:10:17;4.27;;;2.70;;
14817;SDS011;7500;57.698;11.986;2023-05-10T04:12:44;4.57;;;2.87;;
14817;SDS011;7500;57.698;11.986;2023-05-10T04:15:10;3.60;;;2.53;;
14817;SDS011;7500;57.698;11.986;2023-05-10T04:17:37;3.50;;;2.50;;
14817;SDS011;7500;57.698;11.986;2023-05-10T04:20:04;7.37;;;2.80;;
14817;SDS011;7500;57.698;11.986;2023-05-10T04:22:31;4.17;;;2.87;;
14817;SDS011;7500;57.698;11.986;2023-05-10T04:24:58;5.83;;;2.53;;
14817;SDS011;7500;57.698;11.986;2023-05-10T04:27:26;5.23;;;2.70;;
14817;SDS011;7500;57.698;11.986;2023-05-10T04:29:53;4.30;;;2.93;;
14817;SDS011;7500;57.698;11.986;2023-05-10T04:32:19;5.33;;;2.80;;
14817;SDS011;7500;57.698;11.986;2023-05-10T04:34:46;6.47;;;2.77;;
14817;SDS011;7500;57.698;11.986;2023-05-10T04:37:13;8.20;;;2.60;;
14817;SDS011;7500;57.698;11.986;2023-05-10T04:39:39;5.17;;;2.70;;
14817;SDS011;7500;57.698;11.986;2023-05-10T04:42:06;3.80;;;2.50;;
14817;SDS011;7500;57.698;11.986;2023-05-10T04:44:34;3.07;;;2.50;;
14817;SDS011;7500;57.698;11.986;2023-05-10T04:47:01;4.67;;;2.47;;
14817;SDS011;7500;57.698;11.986;2023-05-10T04:49:28;3.93;;;2.73;;
14817;SDS011;7500;57.698;11.986;2023-05-10T04:51:55;2.97;;;2.60;;
14817;SDS011;7500;57.698;11.986;2023-05-10T04:54:22;4.27;;;3.07;;
14817;SDS011;7500;57.698;11.986;2023-05-10T04:56:48;2.90;;;2.60;;
14817;SDS011;7500;57.698;11.986;2023-05-10T04:59:15;4.27;;;2.40;;
14817;SDS011;7500;57.698;11.986;2023-05-10T05:01:43;7.57;;;2.83;;
14817;SDS011;7500;57.698;11.986;2023-05-10T05:04:10;6.30;;;2.93;;
14817;SDS011;7500;57.698;11.986;2023-05-10T05:06:37;5.40;;;2.70;;
14817;SDS011;7500;57.698;11.986;2023-05-10T05:09:03;7.53;;;2.97;;
14817;SDS011;7500;57.698;11.986;2023-05-10T05:11:30;3.23;;;2.93;;
14817;SDS011;7500;57.698;11.986;2023-05-10T05:13:56;6.73;;;3.37;;
14817;SDS011;7500;57.698;11.986;2023-05-10T05:16:24;4.53;;;3.10;;
14817;SDS011;7500;57.698;11.986;2023-05-10T05:18:53;5.33;;;3.03;;
14817;SDS011;7500;57.698;11.986;2023-05-10T05:21:19;4.83;;;2.70;;
14817;SDS011;7500;57.698;11.986;2023-05-10T05:23:46;3.30;;;2.60;;
14817;SDS011;7500;57.698;11.986;2023-05-10T05:26:13;8.20;;;3.00;;
14817;SDS011;7500;57.698;11.986;2023-05-10T05:28:40;4.67;;;3.17;;
14817;SDS011;7500;57.698;11.986;2023-05-10T05:31:06;6.07;;;3.17;;
14817;SDS011;7500;57.698;11.986;2023-05-10T05:33:34;10.40;;;3.47;;
14817;SDS011;7500;57.698;11.986;2023-05-10T05:36:02;5.40;;;3.30;;
14817;SDS011;7500;57.698;11.986;2023-05-10T05:38:29;5.83;;;3.13;;
14817;SDS011;7500;57.698;11.986;2023-05-10T05:40:56;4.20;;;2.87;;
14817;SDS011;7500;57.698;11.986;2023-05-10T05:43:23;5.97;;;3.13;;
14817;SDS011;7500;57.698;11.986;2023-05-10T05:45:49;6.20;;;3.17;;
14817;SDS011;7500;57.698;11.986;2023-05-10T05:48:18;10.97;;;3.50;;
14817;SDS011;7500;57.698;11.986;2023-05-10T05:50:44;7.63;;;3.67;;
14817;SDS011;7500;57.698;11.986;2023-05-10T05:53:13;6.67;;;3.40;;
14817;SDS011;7500;57.698;11.986;2023-05-10T05:55:39;9.47;;;3.20;;
14817;SDS011;7500;57.698;11.986;2023-05-10T05:58:06;4.07;;;3.30;;
14817;SDS011;7500;57.698;11.986;2023-05-10T06:00:33;6.67;;;2.87;;
14817;SDS011;7500;57.698;11.986;2023-05-10T06:02:59;7.27;;;3.40;;
14817;SDS011;7500;57.698;11.986;2023-05-10T06:05:26;4.80;;;3.67;;
14817;SDS011;7500;57.698;11.986;2023-05-10T06:07:53;3.23;;;2.93;;
14817;SDS011;7500;57.698;11.986;2023-05-10T06:10:21;6.60;;;3.50;;
14817;SDS011;7500;57.698;11.986;2023-05-10T06:12:49;8.57;;;3.73;;
14817;SDS011;7500;57.698;11.986;2023-05-10T06:15:16;5.40;;;3.10;;
14817;SDS011;7500;57.698;11.986;2023-05-10T06:17:43;5.37;;;3.50;;
14817;SDS011;7500;57.698;11.986;2023-05-10T06:20:10;5.67;;;3.57;;
14817;SDS011;7500;57.698;11.986;2023-05-10T06:22:36;7.03;;;3.37;;
14817;SDS011;7500;57.698;11.986;2023-05-10T06:25:03;10.63;;;3.40;;
14817;SDS011;7500;57.698;11.986;2023-05-10T06:27:31;7.77;;;3.40;;
14817;SDS011;7500;57.698;11.986;2023-05-10T06:29:58;5.80;;;3.50;;
14817;SDS011;7500;57.698;11.986;2023-05-10T06:32:25;10.97;;;6.90;;
14817;SDS011;7500;57.698;11.986;2023-05-10T06:34:52;4.77;;;3.67;;
14817;SDS011;7500;57.698;11.986;2023-05-10T06:37:18;9.27;;;3.20;;
14817;SDS011;7500;57.698;11.986;2023-05-10T06:39:45;6.97;;;3.27;;
14817;SDS011;7500;57.698;11.986;2023-05-10T06:42:11;5.03;;;3.37;;
14817;SDS011;7500;57.698;11.986;2023-05-10T06:44:40;9.07;;;3.97;;
14817;SDS011;7500;57.698;11.986;2023-05-10T06:47:06;6.63;;;3.07;;
14817;SDS011;7500;57.698;11.986;2023-05-10T06:49:33;5.10;;;2.90;;
14817;SDS011;7500;57.698;11.986;2023-05-10T06:52:00;8.30;;;3.57;;
14817;SDS011;7500;57.698;11.986;2023-05-10T06:54:27;5.60;;;2.90;;
14817;SDS011;7500;57.698;11.986;2023-05-10T06:56:53;11.47;;;3.50;;
14817;SDS011;7500;57.698;11.986;2023-05-10T06:59:20;5.47;;;3.57;;
14817;SDS011;7500;57.698;11.986;2023-05-10T07:01:48;5.47;;;3.30;;
14817;SDS011;7500;57.698;11.986;2023-05-10T07:04:15;8.50;;;3.43;;
14817;SDS011;7500;57.698;11.986;2023-05-10T07:06:42;6.03;;;3.20;;
14817;SDS011;7500;57.698;11.986;2023-05-10T07:09:11;4.67;;;2.90;;
14817;SDS011;7500;57.698;11.986;2023-05-10T07:11:38;5.83;;;3.17;;
14817;SDS011;7500;57.698;11.986;2023-05-10T07:14:05;7.97;;;3.53;;
14817;SDS011;7500;57.698;11.986;2023-05-10T07:16:31;6.57;;;3.63;;
14817;SDS011;7500;57.698;11.986;2023-05-10T07:18:59;5.20;;;3.00;;
14817;SDS011;7500;57.698;11.986;2023-05-10T07:21:27;6.70;;;3.30;;
14817;SDS011;7500;57.698;11.986;2023-05-10T07:23:54;7.87;;;3.40;;
14817;SDS011;7500;57.698;11.986;2023-05-10T07:26:20;6.27;;;3.40;;
14817;SDS011;7500;57.698;11.986;2023-05-10T07:28:47;5.67;;;2.97;;
14817;SDS011;7500;57.698;11.986;2023-05-10T07:31:14;4.40;;;2.97;;
14817;SDS011;7500;57.698;11.986;2023-05-10T07:33:40;3.97;;;3.03;;
14817;SDS011;7500;57.698;11.986;2023-05-10T07:36:08;7.70;;;3.30;;
14817;SDS011;7500;57.698;11.986;2023-05-10T07:38:35;4.80;;;3.33;;
14817;SDS011;7500;57.698;11.986;2023-05-10T07:41:02;6.27;;;3.30;;
14817;SDS011;7500;57.698;11.986;2023-05-10T07:43:28;7.53;;;3.40;;
14817;SDS011;7500;57.698;11.986;2023-05-10T07:45:55;7.20;;;3.47;;
14817;SDS011;7500;57.698;11.986;2023-05-10T07:48:22;6.77;;;3.20;;
14817;SDS011;7500;57.698;11.986;2023-05-10T07:50:49;5.93;;;3.47;;
14817;SDS011;7500;57.698;11.986;2023-05-10T07:53:17;5.80;;;3.00;;
14817;SDS011;7500;57.698;11.986;2023-05-10T07:55:44;5.50;;;3.10;;
14817;SDS011;7500;57.698;11.986;2023-05-10T07:58:16;7.07;;;3.20;;
14817;SDS011;7500;57.698;11.986;2023-05-10T08:00:42;5.73;;;3.50;;
14817;SDS011;7500;57.698;11.986;2023-05-10T08:03:09;4.03;;;3.20;;
14817;SDS011;7500;57.698;11.986;2023-05-10T08:05:35;5.27;;;3.87;;
14817;SDS011;7500;57.698;11.986;2023-05-10T08:08:02;4.00;;;3.57;;
14817;SDS011;7500;57.698;11.986;2023-05-10T08:10:30;4.53;;;3.50;;
14817;SDS011;7500;57.698;11.986;2023-05-10T08:12:57;5.47;;;3.20;;
14817;SDS011;7500;57.698;11.986;2023-05-10T08:15:23;6.40;;;3.23;;
14817;SDS011;7500;57.698;11.986;2023-05-10T08:17:50;4.57;;;3.20;;
14817;SDS011;7500;57.698;11.986;2023-05-10T08:20:17;7.13;;;3.40;;
14817;SDS011;7500;57.698;11.986;2023-05-10T08:22:44;4.97;;;3.53;;
14817;SDS011;7500;57.698;11.986;2023-05-10T08:25:11;12.50;;;3.43;;
14817;SDS011;7500;57.698;11.986;2023-05-10T08:27:39;6.63;;;3.30;;
14817;SDS011;7500;57.698;11.986;2023-05-10T08:30:06;6.40;;;3.20;;
14817;SDS011;7500;57.698;11.986;2023-05-10T08:32:33;6.20;;;3.20;;
14817;SDS011;7500;57.698;11.986;2023-05-10T08:35:00;8.10;;;3.10;;
14817;SDS011;7500;57.698;11.986;2023-05-10T08:37:29;7.23;;;3.10;;
14817;SDS011;7500;57.698;11.986;2023-05-10T08:39:57;4.03;;;3.60;;
14817;SDS011;7500;57.698;11.986;2023-05-10T08:42:23;7.90;;;3.33;;
14817;SDS011;7500;57.698;11.986;2023-05-10T08:44:53;7.67;;;3.20;;
14817;SDS011;7500;57.698;11.986;2023-05-10T08:47:20;8.40;;;3.77;;
14817;SDS011;7500;57.698;11.986;2023-05-10T08:49:47;6.20;;;3.67;;
14817;SDS011;7500;57.698;11.986;2023-05-10T08:52:16;11.07;;;3.30;;
14817;SDS011;7500;57.698;11.986;2023-05-10T08:54:43;9.67;;;3.43;;
14817;SDS011;7500;57.698;11.986;2023-05-10T08:57:10;6.43;;;3.47;;
14817;SDS011;7500;57.698;11.986;2023-05-10T08:59:36;5.17;;;3.37;;
14817;SDS011;7500;57.698;11.986;2023-05-10T09:02:05;4.77;;;3.50;;
14817;SDS011;7500;57.698;11.986;2023-05-10T09:04:32;4.17;;;3.00;;
14817;SDS011;7500;57.698;11.986;2023-05-10T09:06:59;4.27;;;2.97;;
14817;SDS011;7500;57.698;11.986;2023-05-10T09:09:26;5.63;;;3.03;;
14817;SDS011;7500;57.698;11.986;2023-05-10T09:11:53;6.20;;;3.40;;
14817;SDS011;7500;57.698;11.986;2023-05-10T09:14:20;10.50;;;3.73;;
14817;SDS011;7500;57.698;11.986;2023-05-10T09:16:48;8.80;;;3.83;;
14817;SDS011;7500;57.698;11.986;2023-05-10T09:19:16;8.33;;;3.10;;
14817;SDS011;7500;57.698;11.986;2023-05-10T09:21:42;7.37;;;3.70;;
14817;SDS011;7500;57.698;11.986;2023-05-10T09:24:09;6.20;;;3.23;;
14817;SDS011;7500;57.698;11.986;2023-05-10T09:26:39;4.03;;;3.30;;
14817;SDS011;7500;57.698;11.986;2023-05-10T09:29:11;6.07;;;3.77;;
14817;SDS011;7500;57.698;11.986;2023-05-10T09:31:46;5.83;;;3.20;;
14817;SDS011;7500;57.698;11.986;2023-05-10T09:34:17;6.30;;;3.57;;
14817;SDS011;7500;57.698;11.986;2023-05-10T09:36:51;7.13;;;3.23;;
14817;SDS011;7500;57.698;11.986;2023-05-10T09:39:18;3.23;;;2.70;;
14817;SDS011;7500;57.698;11.986;2023-05-10T09:41:45;5.30;;;3.37;;
14817;SDS011;7500;57.698;11.986;2023-05-10T09:44:12;6.80;;;3.30;;
14817;SDS011;7500;57.698;11.986;2023-05-10T09:46:42;3.90;;;3.13;;
14817;SDS011;7500;57.698;11.986;2023-05-10T09:49:09;3.83;;;3.40;;
14817;SDS011;7500;57.698;11.986;2023-05-10T09:51:41;5.40;;;3.20;;
14817;SDS011;7500;57.698;11.986;2023-05-10T09:54:09;6.63;;;3.53;;
14817;SDS011;7500;57.698;11.986;2023-05-10T09:56:36;5.70;;;3.23;;
14817;SDS011;7500;57.698;11.986;2023-05-10T09:59:05;4.13;;;3.13;;
14817;SDS011;7500;57.698;11.986;2023-05-10T10:01:32;4.33;;;3.00;;
14817;SDS011;7500;57.698;11.986;2023-05-10T10:03:59;4.83;;;3.43;;
14817;SDS011;7500;57.698;11.986;2023-05-10T10:06:28;9.50;;;3.20;;
14817;SDS011;7500;57.698;11.986;2023-05-10T10:08:57;6.00;;;3.80;;
14817;SDS011;7500;57.698;11.986;2023-05-10T10:11:23;8.13;;;3.67;;
14817;SDS011;7500;57.698;11.986;2023-05-10T10:13:50;3.70;;;3.40;;
14817;SDS011;7500;57.698;11.986;2023-05-10T10:16:17;5.07;;;3.20;;
14817;SDS011;7500;57.698;11.986;2023-05-10T10:18:43;5.73;;;3.10;;
14817;SDS011;7500;57.698;11.986;2023-05-10T10:21:10;5.87;;;3.10;;
14817;SDS011;7500;57.698;11.986;2023-05-10T10:23:37;8.27;;;3.27;;
14817;SDS011;7500;57.698;11.986;2023-05-10T10:26:05;4.57;;;3.10;;
14817;SDS011;7500;57.698;11.986;2023-05-10T10:28:34;7.27;;;3.53;;
14817;SDS011;7500;57.698;11.986;2023-05-10T10:31:10;9.50;;;3.60;;
14817;SDS011;7500;57.698;11.986;2023-05-10T10:33:42;5.67;;;3.57;;
14817;SDS011;7500;57.698;11.986;2023-05-10T10:36:16;5.93;;;3.33;;
14817;SDS011;7500;57.698;11.986;2023-05-10T10:38:55;4.57;;;2.73;;
14817;SDS011;7500;57.698;11.986;2023-05-10T10:41:30;4.70;;;3.00;;
14817;SDS011;7500;57.698;11.986;2023-05-10T10:49:23;5.23;;;3.13;;
14817;SDS011;7500;57.698;11.986;2023-05-10T10:54:35;5.37;;;3.00;;
14817;SDS011;7500;57.698;11.986;2023-05-10T10:57:12;6.80;;;3.03;;
14817;SDS011;7500;57.698;11.986;2023-05-10T10:59:42;4.73;;;3.30;;
14817;SDS011;7500;57.698;11.986;2023-05-10T11:02:10;4.87;;;2.90;;
14817;SDS011;7500;57.698;11.986;2023-05-10T11:04:57;6.27;;;3.47;;
14817;SDS011;7500;57.698;11.986;2023-05-10T11:07:23;4.70;;;2.93;;
14817;SDS011;7500;57.698;11.986;2023-05-10T11:09:50;3.20;;;2.90;;
14817;SDS011;7500;57.698;11.986;2023-05-10T11:12:18;4.20;;;2.70;;
14817;SDS011;7500;57.698;11.986;2023-05-10T11:14:49;3.00;;;2.70;;
14817;SDS011;7500;57.698;11.986;2023-05-10T11:17:22;5.10;;;2.70;;
14817;SDS011;7500;57.698;11.986;2023-05-10T11:20:07;3.13;;;2.73;;
14817;SDS011;7500;57.698;11.986;2023-05-10T11:22:48;4.00;;;3.00;;
14817;SDS011;7500;57.698;11.986;2023-05-10T11:25:15;3.50;;;2.50;;
14817;SDS011;7500;57.698;11.986;2023-05-10T11:27:43;8.30;;;3.30;;
14817;SDS011;7500;57.698;11.986;2023-05-10T11:30:11;5.90;;;2.60;;
14817;SDS011;7500;57.698;11.986;2023-05-10T11:32:38;6.83;;;2.97;;
14817;SDS011;7500;57.698;11.986;2023-05-10T11:35:08;4.40;;;3.07;;
14817;SDS011;7500;57.698;11.986;2023-05-10T11:37:35;4.97;;;2.90;;
14817;SDS011;7500;57.698;11.986;2023-05-10T11:40:04;4.17;;;2.80;;
14817;SDS011;7500;57.698;11.986;2023-05-10T11:42:31;7.50;;;2.80;;
14817;SDS011;7500;57.698;11.986;2023-05-10T11:44:59;6.97;;;2.90;;
14817;SDS011;7500;57.698;11.986;2023-05-10T11:47:26;7.73;;;2.80;;
14817;SDS011;7500;57.698;11.986;2023-05-10T11:49:53;3.17;;;2.60;;
14817;SDS011;7500;57.698;11.986;2023-05-10T11:52:19;6.73;;;3.20;;
14817;SDS011;7500;57.698;11.986;2023-05-10T11:54:50;4.73;;;3.70;;
14817;SDS011;7500;57.698;11.986;2023-05-10T11:57:17;4.00;;;2.70;;
14817;SDS011;7500;57.698;11.986;2023-05-10T11:59:44;5.23;;;2.57;;
14817;SDS011;7500;57.698;11.986;2023-05-10T12:02:13;5.93;;;2.60;;
14817;SDS011;7500;57.698;11.986;2023-05-10T12:04:40;4.67;;;2.57;;
14817;SDS011;7500;57.698;11.986;2023-05-10T12:07:07;4.33;;;2.70;;
14817;SDS011;7500;57.698;11.986;2023-05-10T12:09:33;4.30;;;2.30;;
14817;SDS011;7500;57.698;11.986;2023-05-10T12:12:00;3.80;;;2.37;;
14817;SDS011;7500;57.698;11.986;2023-05-10T12:14:28;2.90;;;2.60;;
14817;SDS011;7500;57.698;11.986;2023-05-10T12:16:58;5.17;;;2.70;;
14817;SDS011;7500;57.698;11.986;2023-05-10T12:19:26;6.17;;;2.50;;
14817;SDS011;7500;57.698;11.986;2023-05-10T12:21:53;3.37;;;2.23;;
14817;SDS011;7500;57.698;11.986;2023-05-10T12:24:20;4.17;;;2.23;;
14817;SDS011;7500;57.698;11.986;2023-05-10T12:26:46;4.47;;;2.10;;
14817;SDS011;7500;57.698;11.986;2023-05-10T12:29:13;4.13;;;2.03;;
14817;SDS011;7500;57.698;11.986;2023-05-10T12:31:53;4.80;;;2.50;;
14817;SDS011;7500;57.698;11.986;2023-05-10T12:34:30;5.67;;;3.00;;
14817;SDS011;7500;57.698;11.986;2023-05-10T12:36:56;8.00;;;2.77;;
14817;SDS011;7500;57.698;11.986;2023-05-10T12:39:23;2.50;;;2.27;;
14817;SDS011;7500;57.698;11.986;2023-05-10T12:41:50;4.33;;;2.60;;
14817;SDS011;7500;57.698;11.986;2023-05-10T12:44:17;3.73;;;2.37;;
14817;SDS011;7500;57.698;11.986;2023-05-10T12:46:43;3.77;;;2.90;;
14817;SDS011;7500;57.698;11.986;2023-05-10T12:49:10;4.93;;;2.50;;
14817;SDS011;7500;57.698;11.986;2023-05-10T12:51:38;4.50;;;2.93;;
14817;SDS011;7500;57.698;11.986;2023-05-10T12:54:05;8.60;;;3.37;;
14817;SDS011;7500;57.698;11.986;2023-05-10T12:56:31;3.23;;;2.83;;
14817;SDS011;7500;57.698;11.986;2023-05-10T12:58:58;5.20;;;2.83;;
14817;SDS011;7500;57.698;11.986;2023-05-10T13:01:25;4.10;;;2.63;;
14817;SDS011;7500;57.698;11.986;2023-05-10T13:03:51;4.10;;;2.53;;
14817;SDS011;7500;57.698;11.986;2023-05-10T13:06:18;4.43;;;2.47;;
14817;SDS011;7500;57.698;11.986;2023-05-10T13:08:46;7.37;;;2.40;;
14817;SDS011;7500;57.698;11.986;2023-05-10T13:11:13;2.77;;;2.20;;
14817;SDS011;7500;57.698;11.986;2023-05-10T13:13:41;5.43;;;2.60;;
14817;SDS011;7500;57.698;11.986;2023-05-10T13:16:08;4.77;;;2.80;;
14817;SDS011;7500;57.698;11.986;2023-05-10T13:18:35;5.63;;;2.43;;
14817;SDS011;7500;57.698;11.986;2023-05-10T13:21:01;8.17;;;2.70;;
14817;SDS011;7500;57.698;11.986;2023-05-10T13:23:29;4.17;;;2.90;;
14817;SDS011;7500;57.698;11.986;2023-05-10T13:25:57;3.57;;;2.43;;
14817;SDS011;7500;57.698;11.986;2023-05-10T13:28:23;4.17;;;2.30;;
14817;SDS011;7500;57.698;11.986;2023-05-10T13:30:51;2.77;;;2.20;;
14817;SDS011;7500;57.698;11.986;2023-05-10T13:33:18;10.07;;;3.10;;
14817;SDS011;7500;57.698;11.986;2023-05-10T13:35:44;5.00;;;2.33;;
14817;SDS011;7500;57.698;11.986;2023-05-10T13:38:11;5.97;;;2.50;;
14817;SDS011;7500;57.698;11.986;2023-05-10T13:40:38;4.43;;;2.40;;
14817;SDS011;7500;57.698;11.986;2023-05-10T13:43:06;2.73;;;2.53;;
14817;SDS011;7500;57.698;11.986;2023-05-10T13:45:33;3.50;;;2.50;;
14817;SDS011;7500;57.698;11.986;2023-05-10T13:47:59;5.00;;;2.30;;
14817;SDS011;7500;57.698;11.986;2023-05-10T13:50:26;5.23;;;2.60;;
14817;SDS011;7500;57.698;11.986;2023-05-10T13:52:53;6.53;;;2.93;;
14817;SDS011;7500;57.698;11.986;2023-05-10T13:55:20;5.67;;;2.60;;
14817;SDS011;7500;57.698;11.986;2023-05-10T13:57:46;3.37;;;2.30;;
14817;SDS011;7500;57.698;11.986;2023-05-10T14:00:15;3.97;;;2.30;;
14817;SDS011;7500;57.698;11.986;2023-05-10T14:02:42;6.83;;;2.60;;
14817;SDS011;7500;57.698;11.986;2023-05-10T14:05:09;2.93;;;2.17;;
14817;SDS011;7500;57.698;11.986;2023-05-10T14:07:35;5.40;;;2.40;;
14817;SDS011;7500;57.698;11.986;2023-05-10T14:10:02;4.77;;;2.30;;
14817;SDS011;7500;57.698;11.986;2023-05-10T14:12:29;6.10;;;2.50;;
14817;SDS011;7500;57.698;11.986;2023-05-10T14:14:55;4.17;;;2.50;;
14817;SDS011;7500;57.698;11.986;2023-05-10T14:17:24;2.70;;;2.30;;
14817;SDS011;7500;57.698;11.986;2023-05-10T14:19:51;2.50;;;2.30;;
14817;SDS011;7500;57.698;11.986;2023-05-10T14:22:18;3.83;;;2.50;;
14817;SDS011;7500;57.698;11.986;2023-05-10T14:24:45;4.77;;;2.67;;
14817;SDS011;7500;57.698;11.986;2023-05-10T14:27:12;3.43;;;2.30;;
14817;SDS011;7500;57.698;11.986;2023-05-10T14:29:39;4.43;;;1.97;;
14817;SDS011;7500;57.698;11.986;2023-05-10T14:32:05;3.60;;;2.20;;
14817;SDS011;7500;57.698;11.986;2023-05-10T14:34:33;2.30;;;2.10;;
14817;SDS011;7500;57.698;11.986;2023-05-10T14:37:00;5.90;;;2.40;;
14817;SDS011;7500;57.698;11.986;2023-05-10T14:39:27;4.67;;;2.30;;
14817;SDS011;7500;57.698;11.986;2023-05-10T14:41:54;3.00;;;2.00;;
14817;SDS011;7500;57.698;11.986;2023-05-10T14:44:21;3.93;;;2.20;;
14817;SDS011;7500;57.698;11.986;2023-05-10T14:46:48;5.60;;;2.23;;
14817;SDS011;7500;57.698;11.986;2023-05-10T14:49:15;3.83;;;2.07;;
14817;SDS011;7500;57.698;11.986;2023-05-10T14:51:43;3.93;;;1.97;;
14817;SDS011;7500;57.698;11.986;2023-05-10T14:54:10;2.53;;;2.30;;
14817;SDS011;7500;57.698;11.986;2023-05-10T14:56:36;6.03;;;2.30;;
14817;SDS011;7500;57.698;11.986;2023-05-10T14:59:03;7.40;;;2.90;;
14817;SDS011;7500;57.698;11.986;2023-05-10T15:01:30;5.10;;;2.40;;